sensor_id;sensor_type;location;lat;lon;timestamp;pressure;altitude;pressure_sealevel;temperature;humidity
51530;BME280;37613;51.788;21.582;2022-12-11T00:02:28;99118.77;;;-2.02;100.00
51530;BME280;37613;51.788;21.582;2022-12-11T00:06:30;99110.67;;;-2.07;100.00
51530;BME280;37613;51.788;21.582;2022-12-11T00:10:32;99103.34;;;-2.08;100.00
51530;BME280;37613;51.788;21.582;2022-12-11T00:14:34;99102.17;;;-2.11;100.00
51530;BME280;37613;51.788;21.582;2022-12-11T00:18:39;99103.64;;;-2.11;100.00
51530;BME280;37613;51.788;21.582;2022-12-11T00:22:41;99111.04;;;-2.10;100.00
51530;BME280;37613;51.788;21.582;2022-12-11T00:26:43;99109.48;;;-2.12;100.00
51530;BME280;37613;51.788;21.582;2022-12-11T00:30:46;99107.66;;;-2.13;100.00
51530;BME280;37613;51.788;21.582;2022-12-11T00:34:48;99106.41;;;-2.13;100.00
51530;BME280;37613;51.788;21.582;2022-12-11T00:38:51;99109.65;;;-2.14;100.00
51530;BME280;37613;51.788;21.582;2022-12-11T00:42:53;99102.67;;;-2.14;100.00
51530;BME280;37613;51.788;21.582;2022-12-11T00:46:55;99101.61;;;-2.14;100.00
51530;BME280;37613;51.788;21.582;2022-12-11T00:50:58;99099.08;;;-2.13;100.00
51530;BME280;37613;51.788;21.582;2022-12-11T00:55:00;99097.66;;;-2.11;100.00
51530;BME280;37613;51.788;21.582;2022-12-11T00:59:02;99095.61;;;-2.10;100.00
51530;BME280;37613;51.788;21.582;2022-12-11T01:03:04;99092.02;;;-2.09;100.00
51530;BME280;37613;51.788;21.582;2022-12-11T01:07:06;99094.27;;;-2.08;100.00
51530;BME280;37613;51.788;21.582;2022-12-11T01:11:11;99093.15;;;-2.10;100.00
51530;BME280;37613;51.788;21.582;2022-12-11T01:15:13;99093.23;;;-2.12;100.00
51530;BME280;37613;51.788;21.582;2022-12-11T01:19:15;99084.65;;;-2.11;100.00
51530;BME280;37613;51.788;21.582;2022-12-11T01:23:17;99082.48;;;-2.09;100.00
51530;BME280;37613;51.788;21.582;2022-12-11T01:27:19;99072.20;;;-2.11;100.00
51530;BME280;37613;51.788;21.582;2022-12-11T01:31:21;99053.34;;;-2.12;100.00
51530;BME280;37613;51.788;21.582;2022-12-11T01:35:23;99043.46;;;-2.13;100.00
51530;BME280;37613;51.788;21.582;2022-12-11T01:39:25;99027.30;;;-2.20;100.00
51530;BME280;37613;51.788;21.582;2022-12-11T01:43:27;99025.42;;;-2.18;100.00
51530;BME280;37613;51.788;21.582;2022-12-11T01:47:29;99021.12;;;-2.22;100.00
51530;BME280;37613;51.788;21.582;2022-12-11T01:51:36;99025.04;;;-2.25;100.00
51530;BME280;37613;51.788;21.582;2022-12-11T01:55:40;99020.81;;;-2.27;100.00
51530;BME280;37613;51.788;21.582;2022-12-11T01:59:44;99011.11;;;-2.28;100.00
51530;BME280;37613;51.788;21.582;2022-12-11T02:03:50;99007.85;;;-2.28;100.00
51530;BME280;37613;51.788;21.582;2022-12-11T02:07:56;99001.63;;;-2.29;100.00
51530;BME280;37613;51.788;21.582;2022-12-11T02:12:14;99000.71;;;-2.31;100.00
51530;BME280;37613;51.788;21.582;2022-12-11T02:16:25;99001.52;;;-2.32;100.00
51530;BME280;37613;51.788;21.582;2022-12-11T02:20:37;99001.55;;;-2.33;100.00
51530;BME280;37613;51.788;21.582;2022-12-11T02:25:02;99000.45;;;-2.37;100.00
51530;BME280;37613;51.788;21.582;2022-12-11T02:29:08;98999.71;;;-2.38;100.00
51530;BME280;37613;51.788;21.582;2022-12-11T02:33:14;98997.35;;;-2.39;100.00
51530;BME280;37613;51.788;21.582;2022-12-11T02:37:22;98995.70;;;-2.40;100.00
51530;BME280;37613;51.788;21.582;2022-12-11T02:41:26;98993.90;;;-2.43;100.00
51530;BME280;37613;51.788;21.582;2022-12-11T02:45:31;98985.73;;;-2.44;100.00
51530;BME280;37613;51.788;21.582;2022-12-11T02:49:34;98986.33;;;-2.45;100.00
51530;BME280;37613;51.788;21.582;2022-12-11T02:53:38;98986.66;;;-2.47;100.00
51530;BME280;37613;51.788;21.582;2022-12-11T02:58:01;98980.30;;;-2.47;100.00
51530;BME280;37613;51.788;21.582;2022-12-11T03:02:05;98981.45;;;-2.47;100.00
51530;BME280;37613;51.788;21.582;2022-12-11T03:06:10;98976.89;;;-2.47;100.00
51530;BME280;37613;51.788;21.582;2022-12-11T03:10:17;98979.76;;;-2.47;100.00
51530;BME280;37613;51.788;21.582;2022-12-11T03:14:20;98980.95;;;-2.49;100.00
51530;BME280;37613;51.788;21.582;2022-12-11T03:27:24;98970.48;;;-2.51;100.00
51530;BME280;37613;51.788;21.582;2022-12-11T03:31:42;98967.98;;;-2.53;100.00
51530;BME280;37613;51.788;21.582;2022-12-11T03:36:02;98970.33;;;-2.51;100.00
51530;BME280;37613;51.788;21.582;2022-12-11T03:40:11;98964.86;;;-2.49;100.00
51530;BME280;37613;51.788;21.582;2022-12-11T03:44:14;98960.52;;;-2.46;100.00
51530;BME280;37613;51.788;21.582;2022-12-11T03:48:18;98961.68;;;-2.46;100.00
51530;BME280;37613;51.788;21.582;2022-12-11T03:52:22;98958.92;;;-2.48;100.00
51530;BME280;37613;51.788;21.582;2022-12-11T03:56:29;98952.48;;;-2.51;100.00
51530;BME280;37613;51.788;21.582;2022-12-11T04:00:32;98949.95;;;-2.53;100.00
51530;BME280;37613;51.788;21.582;2022-12-11T04:04:38;98953.14;;;-2.55;100.00
51530;BME280;37613;51.788;21.582;2022-12-11T04:08:40;98952.20;;;-2.55;100.00
51530;BME280;37613;51.788;21.582;2022-12-11T04:12:42;98948.91;;;-2.57;100.00
51530;BME280;37613;51.788;21.582;2022-12-11T04:16:44;98941.98;;;-2.57;100.00
51530;BME280;37613;51.788;21.582;2022-12-11T04:20:53;98941.73;;;-2.58;100.00
51530;BME280;37613;51.788;21.582;2022-12-11T04:25:14;98936.85;;;-2.58;100.00
51530;BME280;37613;51.788;21.582;2022-12-11T04:29:16;98935.69;;;-2.58;100.00
51530;BME280;37613;51.788;21.582;2022-12-11T04:33:18;98937.09;;;-2.60;100.00
51530;BME280;37613;51.788;21.582;2022-12-11T04:37:20;98933.09;;;-2.63;100.00
51530;BME280;37613;51.788;21.582;2022-12-11T04:41:22;98930.69;;;-2.65;100.00
51530;BME280;37613;51.788;21.582;2022-12-11T04:45:24;98927.73;;;-2.67;100.00
51530;BME280;37613;51.788;21.582;2022-12-11T04:49:26;98912.96;;;-2.72;100.00
51530;BME280;37613;51.788;21.582;2022-12-11T04:53:31;98907.52;;;-2.68;100.00
51530;BME280;37613;51.788;21.582;2022-12-11T04:57:33;98900.10;;;-2.68;100.00
51530;BME280;37613;51.788;21.582;2022-12-11T05:01:36;98890.59;;;-2.68;100.00
51530;BME280;37613;51.788;21.582;2022-12-11T05:05:38;98884.60;;;-2.69;100.00
51530;BME280;37613;51.788;21.582;2022-12-11T05:09:40;98880.84;;;-2.70;100.00
51530;BME280;37613;51.788;21.582;2022-12-11T05:13:43;98870.70;;;-2.73;100.00
51530;BME280;37613;51.788;21.582;2022-12-11T05:17:45;98856.70;;;-2.75;100.00
51530;BME280;37613;51.788;21.582;2022-12-11T05:21:47;98855.64;;;-2.77;100.00
51530;BME280;37613;51.788;21.582;2022-12-11T05:25:54;98849.70;;;-2.79;100.00
51530;BME280;37613;51.788;21.582;2022-12-11T05:30:00;98842.45;;;-2.81;100.00
51530;BME280;37613;51.788;21.582;2022-12-11T05:34:02;98839.41;;;-2.81;100.00
51530;BME280;37613;51.788;21.582;2022-12-11T05:38:04;98833.06;;;-2.85;100.00
51530;BME280;37613;51.788;21.582;2022-12-11T05:42:06;98830.97;;;-2.87;100.00
51530;BME280;37613;51.788;21.582;2022-12-11T05:46:09;98824.96;;;-2.88;100.00
51530;BME280;37613;51.788;21.582;2022-12-11T05:50:12;98821.42;;;-2.90;100.00
51530;BME280;37613;51.788;21.582;2022-12-11T05:54:15;98825.89;;;-2.93;100.00
51530;BME280;37613;51.788;21.582;2022-12-11T05:58:17;98825.13;;;-2.98;100.00
51530;BME280;37613;51.788;21.582;2022-12-11T06:02:19;98826.94;;;-3.02;100.00
51530;BME280;37613;51.788;21.582;2022-12-11T06:06:23;98833.35;;;-3.04;100.00
51530;BME280;37613;51.788;21.582;2022-12-11T06:10:25;98839.85;;;-3.07;100.00
51530;BME280;37613;51.788;21.582;2022-12-11T06:14:30;98843.22;;;-3.08;100.00
51530;BME280;37613;51.788;21.582;2022-12-11T06:18:36;98845.56;;;-3.10;100.00
51530;BME280;37613;51.788;21.582;2022-12-11T06:22:39;98848.73;;;-3.12;100.00
51530;BME280;37613;51.788;21.582;2022-12-11T06:26:41;98849.48;;;-3.15;100.00
51530;BME280;37613;51.788;21.582;2022-12-11T06:30:43;98847.80;;;-3.18;100.00
51530;BME280;37613;51.788;21.582;2022-12-11T06:34:46;98847.04;;;-3.19;100.00
51530;BME280;37613;51.788;21.582;2022-12-11T06:38:49;98842.08;;;-3.22;100.00
51530;BME280;37613;51.788;21.582;2022-12-11T06:42:53;98839.57;;;-3.25;100.00
51530;BME280;37613;51.788;21.582;2022-12-11T06:46:55;98834.39;;;-3.29;100.00
51530;BME280;37613;51.788;21.582;2022-12-11T06:51:06;98830.50;;;-3.33;100.00
51530;BME280;37613;51.788;21.582;2022-12-11T06:55:08;98827.30;;;-3.34;100.00
51530;BME280;37613;51.788;21.582;2022-12-11T06:59:11;98819.64;;;-3.36;100.00
51530;BME280;37613;51.788;21.582;2022-12-11T07:03:13;98804.23;;;-3.45;100.00
51530;BME280;37613;51.788;21.582;2022-12-11T07:07:15;98810.14;;;-3.41;100.00
51530;BME280;37613;51.788;21.582;2022-12-11T07:11:18;98808.23;;;-3.45;100.00
51530;BME280;37613;51.788;21.582;2022-12-11T07:15:20;98803.34;;;-3.48;100.00
51530;BME280;37613;51.788;21.582;2022-12-11T07:19:23;98798.10;;;-3.50;100.00
51530;BME280;37613;51.788;21.582;2022-12-11T07:23:27;98791.45;;;-3.52;100.00
51530;BME280;37613;51.788;21.582;2022-12-11T07:27:29;98788.13;;;-3.55;100.00
51530;BME280;37613;51.788;21.582;2022-12-11T07:31:31;98789.69;;;-3.57;100.00
51530;BME280;37613;51.788;21.582;2022-12-11T07:35:34;98789.75;;;-3.59;100.00
51530;BME280;37613;51.788;21.582;2022-12-11T07:39:36;98790.32;;;-3.61;100.00
51530;BME280;37613;51.788;21.582;2022-12-11T07:43:39;98788.16;;;-3.64;100.00
51530;BME280;37613;51.788;21.582;2022-12-11T07:47:41;98785.86;;;-3.58;100.00
51530;BME280;37613;51.788;21.582;2022-12-11T07:51:43;98780.48;;;-3.55;100.00
51530;BME280;37613;51.788;21.582;2022-12-11T07:55:45;98775.42;;;-3.56;100.00
51530;BME280;37613;51.788;21.582;2022-12-11T07:59:47;98772.65;;;-3.56;100.00
51530;BME280;37613;51.788;21.582;2022-12-11T08:03:49;98769.48;;;-3.56;100.00
51530;BME280;37613;51.788;21.582;2022-12-11T08:07:51;98766.08;;;-3.56;100.00
51530;BME280;37613;51.788;21.582;2022-12-11T08:11:53;98755.78;;;-3.61;100.00
51530;BME280;37613;51.788;21.582;2022-12-11T08:15:55;98744.11;;;-3.64;100.00
51530;BME280;37613;51.788;21.582;2022-12-11T08:19:57;98749.44;;;-3.57;100.00
51530;BME280;37613;51.788;21.582;2022-12-11T08:23:59;98745.55;;;-3.56;100.00
51530;BME280;37613;51.788;21.582;2022-12-11T08:28:02;98736.89;;;-3.56;100.00
51530;BME280;37613;51.788;21.582;2022-12-11T08:32:04;98733.96;;;-3.55;100.00
51530;BME280;37613;51.788;21.582;2022-12-11T08:36:09;98733.58;;;-3.55;100.00
51530;BME280;37613;51.788;21.582;2022-12-11T08:40:12;98735.41;;;-3.56;100.00
51530;BME280;37613;51.788;21.582;2022-12-11T08:44:14;98735.67;;;-3.55;100.00
51530;BME280;37613;51.788;21.582;2022-12-11T08:48:17;98739.75;;;-3.56;100.00
51530;BME280;37613;51.788;21.582;2022-12-11T08:52:19;98731.09;;;-3.58;100.00
51530;BME280;37613;51.788;21.582;2022-12-11T08:56:22;98733.41;;;-3.58;100.00
51530;BME280;37613;51.788;21.582;2022-12-11T09:00:24;98728.91;;;-3.56;100.00
51530;BME280;37613;51.788;21.582;2022-12-11T09:04:27;98724.38;;;-3.58;100.00
51530;BME280;37613;51.788;21.582;2022-12-11T09:08:29;98721.56;;;-3.54;100.00
51530;BME280;37613;51.788;21.582;2022-12-11T09:12:35;98710.86;;;-3.51;100.00
51530;BME280;37613;51.788;21.582;2022-12-11T09:16:38;98700.77;;;-3.50;100.00
51530;BME280;37613;51.788;21.582;2022-12-11T09:20:41;98695.10;;;-3.45;100.00
51530;BME280;37613;51.788;21.582;2022-12-11T09:24:43;98690.42;;;-3.47;100.00
51530;BME280;37613;51.788;21.582;2022-12-11T09:28:45;98688.42;;;-3.44;100.00
51530;BME280;37613;51.788;21.582;2022-12-11T09:32:47;98680.64;;;-3.43;100.00
51530;BME280;37613;51.788;21.582;2022-12-11T09:36:49;98672.97;;;-3.44;100.00
51530;BME280;37613;51.788;21.582;2022-12-11T09:40:52;98666.80;;;-3.43;100.00
51530;BME280;37613;51.788;21.582;2022-12-11T09:44:57;98662.82;;;-3.40;100.00
51530;BME280;37613;51.788;21.582;2022-12-11T09:49:02;98654.91;;;-3.33;100.00
51530;BME280;37613;51.788;21.582;2022-12-11T09:53:15;98646.26;;;-3.36;100.00
51530;BME280;37613;51.788;21.582;2022-12-11T10:02:13;98630.17;;;-3.44;100.00
51530;BME280;37613;51.788;21.582;2022-12-11T10:06:33;98628.40;;;-3.46;100.00
51530;BME280;37613;51.788;21.582;2022-12-11T10:10:43;98624.80;;;-3.43;100.00
51530;BME280;37613;51.788;21.582;2022-12-11T10:15:11;98617.91;;;-3.38;100.00
51530;BME280;37613;51.788;21.582;2022-12-11T10:19:21;98606.50;;;-3.37;100.00
51530;BME280;37613;51.788;21.582;2022-12-11T10:23:35;98608.36;;;-3.35;100.00
51530;BME280;37613;51.788;21.582;2022-12-11T10:27:40;98604.92;;;-3.33;100.00
51530;BME280;37613;51.788;21.582;2022-12-11T10:31:53;98600.98;;;-3.36;100.00
51530;BME280;37613;51.788;21.582;2022-12-11T10:35:56;98604.89;;;-3.34;100.00
51530;BME280;37613;51.788;21.582;2022-12-11T10:39:59;98598.38;;;-3.29;100.00
51530;BME280;37613;51.788;21.582;2022-12-11T10:48:17;98586.41;;;-3.32;100.00
51530;BME280;37613;51.788;21.582;2022-12-11T10:52:25;98575.42;;;-3.35;100.00
51530;BME280;37613;51.788;21.582;2022-12-11T10:56:30;98570.61;;;-3.43;100.00
51530;BME280;37613;51.788;21.582;2022-12-11T11:00:38;98565.27;;;-3.44;100.00
51530;BME280;37613;51.788;21.582;2022-12-11T11:04:42;98561.04;;;-3.35;100.00
51530;BME280;37613;51.788;21.582;2022-12-11T11:08:48;98553.51;;;-3.42;100.00
51530;BME280;37613;51.788;21.582;2022-12-11T11:12:54;98551.26;;;-3.48;100.00
51530;BME280;37613;51.788;21.582;2022-12-11T11:17:01;98546.79;;;-3.47;100.00
51530;BME280;37613;51.788;21.582;2022-12-11T11:21:03;98548.00;;;-3.40;100.00
51530;BME280;37613;51.788;21.582;2022-12-11T11:25:14;98546.11;;;-3.33;100.00
51530;BME280;37613;51.788;21.582;2022-12-11T11:29:25;98539.94;;;-3.35;100.00
51530;BME280;37613;51.788;21.582;2022-12-11T11:33:32;98532.79;;;-3.37;100.00
51530;BME280;37613;51.788;21.582;2022-12-11T11:37:34;98532.88;;;-3.36;100.00
51530;BME280;37613;51.788;21.582;2022-12-11T11:46:13;98525.61;;;-3.37;100.00
51530;BME280;37613;51.788;21.582;2022-12-11T11:50:25;98522.41;;;-3.38;100.00
51530;BME280;37613;51.788;21.582;2022-12-11T11:54:34;98517.59;;;-3.44;100.00
51530;BME280;37613;51.788;21.582;2022-12-11T11:58:55;98516.70;;;-3.48;100.00
51530;BME280;37613;51.788;21.582;2022-12-11T12:03:07;98518.23;;;-3.49;100.00
51530;BME280;37613;51.788;21.582;2022-12-11T12:07:23;98520.20;;;-3.50;100.00
51530;BME280;37613;51.788;21.582;2022-12-11T12:11:36;98519.14;;;-3.52;100.00
51530;BME280;37613;51.788;21.582;2022-12-11T12:15:56;98517.10;;;-3.53;100.00
51530;BME280;37613;51.788;21.582;2022-12-11T12:28:42;98524.24;;;-3.60;100.00
51530;BME280;37613;51.788;21.582;2022-12-11T12:41:43;98527.80;;;-3.57;100.00
51530;BME280;37613;51.788;21.582;2022-12-11T12:50:36;98520.65;;;-3.75;100.00
51530;BME280;37613;51.788;21.582;2022-12-11T12:54:40;98518.98;;;-3.76;100.00
51530;BME280;37613;51.788;21.582;2022-12-11T12:58:44;98521.77;;;-3.79;100.00
51530;BME280;37613;51.788;21.582;2022-12-11T13:02:48;98517.98;;;-3.87;100.00
51530;BME280;37613;51.788;21.582;2022-12-11T13:06:51;98519.80;;;-3.93;100.00
51530;BME280;37613;51.788;21.582;2022-12-11T13:11:02;98519.67;;;-3.95;100.00
51530;BME280;37613;51.788;21.582;2022-12-11T13:15:33;98521.88;;;-3.98;100.00
51530;BME280;37613;51.788;21.582;2022-12-11T13:19:35;98522.94;;;-4.01;100.00
51530;BME280;37613;51.788;21.582;2022-12-11T13:23:37;98524.79;;;-3.97;100.00
51530;BME280;37613;51.788;21.582;2022-12-11T13:27:41;98525.66;;;-3.85;100.00
51530;BME280;37613;51.788;21.582;2022-12-11T13:32:00;98527.34;;;-3.91;100.00
51530;BME280;37613;51.788;21.582;2022-12-11T13:40:34;98523.41;;;-3.99;100.00
51530;BME280;37613;51.788;21.582;2022-12-11T13:44:41;98512.63;;;-3.98;100.00
51530;BME280;37613;51.788;21.582;2022-12-11T13:48:50;98507.15;;;-3.98;100.00
51530;BME280;37613;51.788;21.582;2022-12-11T13:52:57;98500.14;;;-4.02;100.00
51530;BME280;37613;51.788;21.582;2022-12-11T14:01:11;98501.68;;;-4.15;100.00
51530;BME280;37613;51.788;21.582;2022-12-11T14:05:15;98499.59;;;-4.17;100.00
51530;BME280;37613;51.788;21.582;2022-12-11T14:09:22;98499.79;;;-4.19;100.00
51530;BME280;37613;51.788;21.582;2022-12-11T14:13:35;98503.15;;;-4.22;100.00
51530;BME280;37613;51.788;21.582;2022-12-11T14:17:41;98499.69;;;-4.25;100.00
51530;BME280;37613;51.788;21.582;2022-12-11T14:21:54;98487.29;;;-4.29;100.00
51530;BME280;37613;51.788;21.582;2022-12-11T14:26:20;98478.17;;;-4.32;100.00
51530;BME280;37613;51.788;21.582;2022-12-11T14:30:32;98475.98;;;-4.33;100.00
51530;BME280;37613;51.788;21.582;2022-12-11T14:34:41;98473.90;;;-4.28;100.00
51530;BME280;37613;51.788;21.582;2022-12-11T14:38:49;98477.27;;;-4.21;100.00
51530;BME280;37613;51.788;21.582;2022-12-11T14:42:56;98472.71;;;-4.23;100.00
51530;BME280;37613;51.788;21.582;2022-12-11T14:47:09;98479.90;;;-4.28;100.00
51530;BME280;37613;51.788;21.582;2022-12-11T14:51:16;98484.32;;;-4.30;100.00
51530;BME280;37613;51.788;21.582;2022-12-11T14:55:27;98500.70;;;-4.32;100.00
51530;BME280;37613;51.788;21.582;2022-12-11T14:59:31;98515.48;;;-4.33;100.00
51530;BME280;37613;51.788;21.582;2022-12-11T15:03:39;98520.58;;;-4.35;100.00
51530;BME280;37613;51.788;21.582;2022-12-11T15:08:30;98515.88;;;-4.35;100.00
51530;BME280;37613;51.788;21.582;2022-12-11T15:12:15;98512.64;;;-4.35;100.00
51530;BME280;37613;51.788;21.582;2022-12-11T15:16:19;98512.86;;;-4.35;100.00
51530;BME280;37613;51.788;21.582;2022-12-11T15:20:26;98507.13;;;-4.34;100.00
51530;BME280;37613;51.788;21.582;2022-12-11T15:24:37;98509.71;;;-4.32;100.00
51530;BME280;37613;51.788;21.582;2022-12-11T15:28:41;98505.76;;;-4.30;100.00
51530;BME280;37613;51.788;21.582;2022-12-11T15:32:44;98494.11;;;-4.33;100.00
51530;BME280;37613;51.788;21.582;2022-12-11T15:36:46;98491.34;;;-4.35;100.00
51530;BME280;37613;51.788;21.582;2022-12-11T15:40:50;98492.83;;;-4.34;100.00
51530;BME280;37613;51.788;21.582;2022-12-11T15:44:53;98500.36;;;-4.37;100.00
51530;BME280;37613;51.788;21.582;2022-12-11T15:48:56;98501.77;;;-4.40;100.00
51530;BME280;37613;51.788;21.582;2022-12-11T15:52:58;98496.29;;;-4.39;100.00
51530;BME280;37613;51.788;21.582;2022-12-11T15:57:05;98493.34;;;-4.40;100.00
51530;BME280;37613;51.788;21.582;2022-12-11T16:01:09;98492.04;;;-4.40;100.00
51530;BME280;37613;51.788;21.582;2022-12-11T16:05:12;98503.10;;;-4.38;100.00
51530;BME280;37613;51.788;21.582;2022-12-11T16:09:14;98516.63;;;-4.38;100.00
51530;BME280;37613;51.788;21.582;2022-12-11T16:13:16;98522.25;;;-4.38;100.00
51530;BME280;37613;51.788;21.582;2022-12-11T16:17:18;98529.02;;;-4.39;100.00
51530;BME280;37613;51.788;21.582;2022-12-11T16:21:22;98534.79;;;-4.39;100.00
51530;BME280;37613;51.788;21.582;2022-12-11T16:25:25;98534.45;;;-4.38;100.00
51530;BME280;37613;51.788;21.582;2022-12-11T16:29:28;98533.30;;;-4.35;100.00
51530;BME280;37613;51.788;21.582;2022-12-11T16:33:34;98529.23;;;-4.32;100.00
51530;BME280;37613;51.788;21.582;2022-12-11T16:37:36;98526.81;;;-4.30;100.00
51530;BME280;37613;51.788;21.582;2022-12-11T16:41:38;98533.57;;;-4.29;100.00
51530;BME280;37613;51.788;21.582;2022-12-11T16:45:42;98535.16;;;-4.28;100.00
51530;BME280;37613;51.788;21.582;2022-12-11T16:49:44;98534.30;;;-4.28;100.00
51530;BME280;37613;51.788;21.582;2022-12-11T16:53:46;98534.11;;;-4.29;100.00
51530;BME280;37613;51.788;21.582;2022-12-11T16:57:49;98528.04;;;-4.28;100.00
51530;BME280;37613;51.788;21.582;2022-12-11T17:01:52;98528.02;;;-4.29;100.00
51530;BME280;37613;51.788;21.582;2022-12-11T17:05:54;98530.55;;;-4.28;100.00
51530;BME280;37613;51.788;21.582;2022-12-11T17:09:57;98530.99;;;-4.26;100.00
51530;BME280;37613;51.788;21.582;2022-12-11T17:13:59;98529.30;;;-4.25;100.00
51530;BME280;37613;51.788;21.582;2022-12-11T17:18:02;98519.94;;;-4.24;100.00
51530;BME280;37613;51.788;21.582;2022-12-11T17:22:06;98523.63;;;-4.24;100.00
51530;BME280;37613;51.788;21.582;2022-12-11T17:26:09;98525.84;;;-4.25;100.00
51530;BME280;37613;51.788;21.582;2022-12-11T17:30:12;98533.95;;;-4.25;100.00
51530;BME280;37613;51.788;21.582;2022-12-11T17:34:15;98542.22;;;-4.24;100.00
51530;BME280;37613;51.788;21.582;2022-12-11T17:38:17;98542.72;;;-4.23;100.00
51530;BME280;37613;51.788;21.582;2022-12-11T17:42:20;98544.27;;;-4.23;100.00
51530;BME280;37613;51.788;21.582;2022-12-11T17:46:23;98540.37;;;-4.24;100.00
51530;BME280;37613;51.788;21.582;2022-12-11T17:50:26;98542.29;;;-4.25;100.00
51530;BME280;37613;51.788;21.582;2022-12-11T17:54:28;98542.56;;;-4.26;100.00
51530;BME280;37613;51.788;21.582;2022-12-11T17:58:33;98538.89;;;-4.24;100.00
51530;BME280;37613;51.788;21.582;2022-12-11T18:02:35;98536.45;;;-4.26;100.00
51530;BME280;37613;51.788;21.582;2022-12-11T18:06:38;98528.06;;;-4.30;100.00
51530;BME280;37613;51.788;21.582;2022-12-11T18:10:43;98526.14;;;-4.33;100.00
51530;BME280;37613;51.788;21.582;2022-12-11T18:14:46;98527.22;;;-4.35;100.00
51530;BME280;37613;51.788;21.582;2022-12-11T18:18:49;98521.81;;;-4.37;100.00
51530;BME280;37613;51.788;21.582;2022-12-11T18:22:54;98511.88;;;-4.39;100.00
51530;BME280;37613;51.788;21.582;2022-12-11T18:26:58;98504.42;;;-4.41;100.00
51530;BME280;37613;51.788;21.582;2022-12-11T18:31:01;98495.67;;;-4.44;100.00
51530;BME280;37613;51.788;21.582;2022-12-11T18:35:06;98501.20;;;-4.48;100.00
51530;BME280;37613;51.788;21.582;2022-12-11T18:39:08;98509.10;;;-4.49;100.00
51530;BME280;37613;51.788;21.582;2022-12-11T18:43:12;98513.03;;;-4.49;100.00
51530;BME280;37613;51.788;21.582;2022-12-11T18:47:15;98519.80;;;-4.50;100.00
51530;BME280;37613;51.788;21.582;2022-12-11T18:51:20;98518.74;;;-4.49;100.00
51530;BME280;37613;51.788;21.582;2022-12-11T18:55:26;98528.42;;;-4.51;100.00
51530;BME280;37613;51.788;21.582;2022-12-11T18:59:29;98529.05;;;-4.52;100.00
51530;BME280;37613;51.788;21.582;2022-12-11T19:03:33;98525.89;;;-4.52;100.00
51530;BME280;37613;51.788;21.582;2022-12-11T19:07:38;98526.79;;;-4.53;100.00
51530;BME280;37613;51.788;21.582;2022-12-11T19:11:41;98523.48;;;-4.58;100.00
51530;BME280;37613;51.788;21.582;2022-12-11T19:15:44;98524.55;;;-4.60;100.00
51530;BME280;37613;51.788;21.582;2022-12-11T19:19:50;98528.55;;;-4.62;100.00
51530;BME280;37613;51.788;21.582;2022-12-11T19:23:54;98530.05;;;-4.64;100.00
51530;BME280;37613;51.788;21.582;2022-12-11T19:27:59;98525.84;;;-4.67;100.00
51530;BME280;37613;51.788;21.582;2022-12-11T19:32:03;98530.64;;;-4.69;100.00
51530;BME280;37613;51.788;21.582;2022-12-11T19:36:11;98538.44;;;-4.74;100.00
51530;BME280;37613;51.788;21.582;2022-12-11T19:40:15;98546.07;;;-4.76;100.00
51530;BME280;37613;51.788;21.582;2022-12-11T19:44:22;98546.61;;;-4.78;100.00
51530;BME280;37613;51.788;21.582;2022-12-11T19:48:25;98542.55;;;-4.80;100.00
51530;BME280;37613;51.788;21.582;2022-12-11T19:52:28;98530.63;;;-4.79;100.00
51530;BME280;37613;51.788;21.582;2022-12-11T19:56:32;98528.17;;;-4.79;100.00
51530;BME280;37613;51.788;21.582;2022-12-11T20:00:36;98526.06;;;-4.80;100.00
51530;BME280;37613;51.788;21.582;2022-12-11T20:04:40;98531.66;;;-4.81;100.00
51530;BME280;37613;51.788;21.582;2022-12-11T20:08:43;98537.05;;;-4.81;100.00
51530;BME280;37613;51.788;21.582;2022-12-11T20:12:46;98530.92;;;-4.80;100.00
51530;BME280;37613;51.788;21.582;2022-12-11T20:16:50;98536.47;;;-4.80;100.00
51530;BME280;37613;51.788;21.582;2022-12-11T20:20:53;98545.10;;;-4.80;100.00
51530;BME280;37613;51.788;21.582;2022-12-11T20:24:58;98544.09;;;-4.80;100.00
51530;BME280;37613;51.788;21.582;2022-12-11T20:29:01;98543.63;;;-4.80;100.00
51530;BME280;37613;51.788;21.582;2022-12-11T20:33:07;98545.15;;;-4.81;100.00
51530;BME280;37613;51.788;21.582;2022-12-11T20:37:09;98551.33;;;-4.80;100.00
51530;BME280;37613;51.788;21.582;2022-12-11T20:41:14;98553.06;;;-4.82;100.00
51530;BME280;37613;51.788;21.582;2022-12-11T20:45:20;98551.88;;;-4.82;100.00
51530;BME280;37613;51.788;21.582;2022-12-11T20:49:27;98547.29;;;-4.81;100.00
51530;BME280;37613;51.788;21.582;2022-12-11T20:53:35;98548.39;;;-4.81;100.00
51530;BME280;37613;51.788;21.582;2022-12-11T20:57:38;98542.27;;;-4.82;100.00
51530;BME280;37613;51.788;21.582;2022-12-11T21:01:41;98536.90;;;-4.83;100.00
51530;BME280;37613;51.788;21.582;2022-12-11T21:05:45;98540.86;;;-4.84;100.00
51530;BME280;37613;51.788;21.582;2022-12-11T21:09:48;98537.45;;;-4.84;100.00
51530;BME280;37613;51.788;21.582;2022-12-11T21:13:51;98544.63;;;-4.84;100.00
51530;BME280;37613;51.788;21.582;2022-12-11T21:17:54;98546.30;;;-4.85;100.00
51530;BME280;37613;51.788;21.582;2022-12-11T21:21:59;98546.13;;;-4.85;100.00
51530;BME280;37613;51.788;21.582;2022-12-11T21:26:02;98549.09;;;-4.87;100.00
51530;BME280;37613;51.788;21.582;2022-12-11T21:30:05;98555.48;;;-4.88;100.00
51530;BME280;37613;51.788;21.582;2022-12-11T21:34:09;98555.41;;;-4.88;100.00
51530;BME280;37613;51.788;21.582;2022-12-11T21:38:11;98548.67;;;-4.86;100.00
51530;BME280;37613;51.788;21.582;2022-12-11T21:42:14;98539.19;;;-4.83;100.00
51530;BME280;37613;51.788;21.582;2022-12-11T21:46:19;98539.98;;;-4.81;100.00
51530;BME280;37613;51.788;21.582;2022-12-11T21:50:22;98536.02;;;-4.79;100.00
51530;BME280;37613;51.788;21.582;2022-12-11T21:54:24;98525.71;;;-4.79;100.00
51530;BME280;37613;51.788;21.582;2022-12-11T21:58:26;98524.20;;;-4.81;100.00